createdAt,value
2022-11-20T00:01:37.630Z,69.24
2022-11-20T00:04:06.175Z,69.28
2022-11-20T00:06:34.220Z,69.30
2022-11-20T00:09:06.363Z,69.21
2022-11-20T00:11:36.337Z,69.22
2022-11-20T00:14:05.923Z,69.28
2022-11-20T00:16:36.101Z,69.41
2022-11-20T00:19:04.486Z,69.28
2022-11-20T00:21:33.262Z,69.15
2022-11-20T00:24:01.388Z,69.27
2022-11-20T00:26:30.094Z,69.38
2022-11-20T00:29:00.811Z,69.35
2022-11-20T00:31:30.086Z,69.36
2022-11-20T00:33:59.895Z,69.44
2022-11-20T00:36:29.972Z,69.54
2022-11-20T00:38:59.367Z,69.60
2022-11-20T00:41:29.405Z,69.48
2022-11-20T00:43:57.880Z,69.48
2022-11-20T00:46:27.872Z,69.46
2022-11-20T00:48:57.452Z,69.55
2022-11-20T00:51:27.446Z,69.62
2022-11-20T00:54:01.339Z,69.56
2022-11-20T00:56:30.121Z,69.65
2022-11-20T00:59:02.002Z,69.49
2022-11-20T01:01:30.560Z,69.58
2022-11-20T01:04:01.295Z,69.46
2022-11-20T01:06:33.296Z,69.50
2022-11-20T01:09:04.277Z,69.60
2022-11-20T01:11:38.029Z,69.52
2022-11-20T01:14:08.626Z,69.60
2022-11-20T01:16:40.838Z,69.44
2022-11-20T01:19:17.336Z,69.65
2022-11-20T01:21:51.282Z,69.65
2022-11-20T01:24:23.713Z,69.44
2022-11-20T01:26:53.054Z,69.59
2022-11-20T01:29:24.527Z,69.61
2022-11-20T01:31:53.928Z,69.65
2022-11-20T01:34:23.750Z,69.51
2022-11-20T01:36:54.667Z,69.48
2022-11-20T01:39:26.053Z,69.39
2022-11-20T01:42:14.763Z,69.54
2022-11-20T01:44:49.437Z,69.51
2022-11-20T01:47:28.247Z,69.53
2022-11-20T01:50:20.125Z,69.47
2022-11-20T01:52:57.231Z,69.55
2022-11-20T01:55:30.660Z,69.60
2022-11-20T01:57:59.437Z,69.52
2022-11-20T02:00:27.385Z,69.51
2022-11-20T02:02:59.009Z,69.58
2022-11-20T02:05:34.168Z,69.66
2022-11-20T02:08:04.392Z,69.76
2022-11-20T02:10:33.220Z,69.65
2022-11-20T02:13:20.046Z,69.83
2022-11-20T02:15:48.878Z,69.84
2022-11-20T02:18:19.834Z,69.91
2022-11-20T02:20:51.173Z,69.88
2022-11-20T02:23:29.135Z,69.90
2022-11-20T02:26:04.342Z,69.92
2022-11-20T02:28:32.501Z,70.06
2022-11-20T02:31:00.477Z,69.93
2022-11-20T02:33:28.846Z,69.91
2022-11-20T02:35:57.320Z,70.07
2022-11-20T02:38:25.795Z,70.04
2022-11-20T02:40:55.797Z,69.93
2022-11-20T02:43:24.436Z,69.96
2022-11-20T02:45:52.921Z,70.03
2022-11-20T02:48:20.842Z,70.13
2022-11-20T02:50:48.742Z,70.13
2022-11-20T02:53:16.695Z,70.13
2022-11-20T02:55:44.650Z,70.13
2022-11-20T02:58:12.536Z,70.08
2022-11-20T03:00:40.515Z,69.97
2022-11-20T03:03:09.457Z,69.87
2022-11-20T03:05:37.390Z,70.03
2022-11-20T03:08:05.532Z,70.01
2022-11-20T03:10:34.396Z,69.91
2022-11-20T03:13:02.313Z,70.12
2022-11-20T03:15:32.096Z,69.99
2022-11-20T03:18:00.236Z,70.00
2022-11-20T03:20:28.746Z,70.04
2022-11-20T03:22:56.681Z,70.01
2022-11-20T03:25:25.196Z,70.05
2022-11-20T03:27:53.611Z,69.96
2022-11-20T03:30:27.674Z,69.97
2022-11-20T03:32:58.567Z,69.83
2022-11-20T03:35:27.385Z,69.84
2022-11-20T03:37:55.356Z,69.79
2022-11-20T03:40:23.873Z,69.70
2022-11-20T03:42:51.776Z,69.79
2022-11-20T03:45:20.008Z,69.92
2022-11-20T03:47:48.748Z,69.79
2022-11-20T03:50:16.735Z,69.75
2022-11-20T03:52:44.678Z,69.90
2022-11-20T03:55:12.667Z,69.96
2022-11-20T03:57:40.653Z,69.87
2022-11-20T04:00:10.344Z,69.86
2022-11-20T04:02:38.336Z,69.83
2022-11-20T04:05:06.691Z,69.86
2022-11-20T04:07:35.592Z,69.90
2022-11-20T04:10:03.858Z,69.93
2022-11-20T04:12:35.025Z,69.95
2022-11-20T04:15:03.759Z,69.89
2022-11-20T04:17:31.697Z,69.89
2022-11-20T04:19:59.652Z,69.88
2022-11-20T04:22:29.393Z,69.92
2022-11-20T04:24:59.218Z,69.89
2022-11-20T04:27:27.108Z,69.91
2022-11-20T04:29:55.038Z,69.90
2022-11-20T04:32:26.118Z,69.84
2022-11-20T04:34:55.546Z,69.86
2022-11-20T04:37:23.467Z,69.99
2022-11-20T04:39:51.387Z,69.82
2022-11-20T04:42:29.381Z,69.87
2022-11-20T04:44:58.328Z,69.89
2022-11-20T04:47:27.062Z,70.05
2022-11-20T04:49:54.961Z,69.96
2022-11-20T04:52:23.795Z,70.03
2022-11-20T04:54:54.175Z,70.03
2022-11-20T04:57:22.281Z,70.13
2022-11-20T04:59:51.701Z,69.97
2022-11-20T05:02:19.998Z,69.95
2022-11-20T05:04:48.763Z,69.97
2022-11-20T05:07:17.315Z,70.04
2022-11-20T05:09:45.625Z,69.94
2022-11-20T05:12:16.622Z,69.95
2022-11-20T05:14:44.621Z,70.02
2022-11-20T05:17:13.657Z,69.90
2022-11-20T05:19:41.795Z,69.80
2022-11-20T05:22:09.721Z,69.96
2022-11-20T05:24:38.351Z,69.93
2022-11-20T05:27:06.215Z,69.94
2022-11-20T05:29:34.134Z,69.89
2022-11-20T05:32:02.089Z,70.02
2022-11-20T05:34:30.689Z,70.02
2022-11-20T05:36:58.629Z,70.03
2022-11-20T05:39:26.614Z,70.08
2022-11-20T05:42:14.677Z,69.93
2022-11-20T05:44:44.990Z,70.02
2022-11-20T05:47:12.965Z,70.00
2022-11-20T05:49:40.939Z,70.05
2022-11-20T05:52:08.930Z,69.89
2022-11-20T05:54:36.869Z,69.96
2022-11-20T05:57:06.432Z,70.04
2022-11-20T05:59:34.444Z,69.99
2022-11-20T06:02:03.131Z,70.09
2022-11-20T06:04:33.309Z,70.18
2022-11-20T06:07:03.040Z,69.96
2022-11-20T06:09:32.084Z,70.00
2022-11-20T06:12:01.305Z,69.91
2022-11-20T06:14:30.596Z,70.17
2022-11-20T06:16:58.742Z,70.03
2022-11-20T06:19:27.041Z,70.09
2022-11-20T06:21:55.609Z,70.12
2022-11-20T06:24:26.504Z,70.12
2022-11-20T06:26:55.004Z,70.16
2022-11-20T06:29:23.237Z,70.09
2022-11-20T06:31:52.874Z,70.10
2022-11-20T06:34:23.350Z,70.12
2022-11-20T06:36:51.350Z,70.23
2022-11-20T06:39:20.372Z,70.23
2022-11-20T06:41:48.799Z,70.30
2022-11-20T06:44:17.310Z,70.31
2022-11-20T06:46:45.329Z,70.42
2022-11-20T06:49:13.317Z,70.44
2022-11-20T06:51:41.775Z,70.42
2022-11-20T06:54:10.039Z,70.33
2022-11-20T06:56:43.481Z,70.33
2022-11-20T06:59:12.054Z,70.45
2022-11-20T07:01:40.925Z,70.31
2022-11-20T07:04:10.798Z,70.30
2022-11-20T07:06:46.870Z,70.33
2022-11-20T07:09:15.893Z,70.36
2022-11-20T07:11:48.565Z,70.38
2022-11-20T07:14:18.530Z,70.51
2022-11-20T07:16:50.980Z,70.48
2022-11-20T07:19:19.588Z,70.61
2022-11-20T07:21:50.037Z,70.61
2022-11-20T07:24:19.598Z,70.51
2022-11-20T07:26:50.822Z,70.48
2022-11-20T07:29:20.244Z,70.42
2022-11-20T07:31:48.904Z,70.50
2022-11-20T07:34:17.482Z,70.38
2022-11-20T07:36:47.532Z,70.34
2022-11-20T07:39:16.843Z,70.54
2022-11-20T07:41:46.234Z,70.39
2022-11-20T07:44:15.950Z,70.47
2022-11-20T07:46:50.010Z,70.34
2022-11-20T07:49:19.208Z,70.30
2022-11-20T07:51:51.824Z,70.29
2022-11-20T07:54:23.077Z,70.38
2022-11-20T07:56:51.564Z,70.50
2022-11-20T07:59:27.921Z,70.28
2022-11-20T08:01:56.812Z,70.24
2022-11-20T08:04:32.556Z,70.29
2022-11-20T08:07:02.064Z,70.24
2022-11-20T08:09:30.643Z,70.36
2022-11-20T08:12:24.155Z,70.42
2022-11-20T08:14:55.135Z,70.34
2022-11-20T08:17:24.570Z,70.38
2022-11-20T08:19:53.496Z,70.20
2022-11-20T08:22:22.989Z,70.16
2022-11-20T08:24:52.191Z,70.30
2022-11-20T08:27:24.550Z,70.21
2022-11-20T08:29:55.255Z,70.26
2022-11-20T08:35:09.391Z,70.10
2022-11-20T08:37:42.643Z,70.16
2022-11-20T08:40:17.029Z,70.06
2022-11-20T08:42:51.261Z,70.08
2022-11-20T08:45:21.880Z,69.99
2022-11-20T08:47:50.335Z,70.08
2022-11-20T08:50:20.252Z,70.14
2022-11-20T08:52:51.210Z,70.28
2022-11-20T08:55:20.477Z,70.31
2022-11-20T08:57:56.463Z,70.18
2022-11-20T09:00:24.753Z,70.14
2022-11-20T09:02:55.994Z,70.26
2022-11-20T09:05:25.804Z,70.15
2022-11-20T09:08:02.684Z,70.11
2022-11-20T09:10:33.356Z,70.30
2022-11-20T09:13:03.993Z,70.18
2022-11-20T09:15:34.127Z,70.17
2022-11-20T09:18:06.088Z,70.10
2022-11-20T09:20:34.384Z,70.01
2022-11-20T09:23:08.717Z,69.97
2022-11-20T09:25:41.548Z,69.94
2022-11-20T09:28:10.193Z,69.91
2022-11-20T09:30:38.983Z,69.86
2022-11-20T09:33:08.368Z,69.80
2022-11-20T09:35:37.967Z,69.90
2022-11-20T09:38:31.342Z,69.92
2022-11-20T09:41:07.751Z,69.86
2022-11-20T09:44:31.570Z,70.02
2022-11-20T09:47:25.737Z,69.83
2022-11-20T09:50:19.067Z,69.88
2022-11-20T09:53:12.447Z,69.64
2022-11-20T09:55:42.810Z,69.89
2022-11-20T09:58:49.114Z,70.05
2022-11-20T10:01:27.542Z,69.86
2022-11-20T10:04:12.399Z,69.85
2022-11-20T10:07:30.915Z,69.79
2022-11-20T10:09:58.745Z,69.77
2022-11-20T10:12:41.046Z,69.95
2022-11-20T10:15:37.601Z,69.77
2022-11-20T10:18:29.866Z,69.72
2022-11-20T10:21:39.674Z,69.85
2022-11-20T10:24:29.944Z,69.90
2022-11-20T10:27:33.396Z,69.82
2022-11-20T10:30:09.133Z,69.90
2022-11-20T10:32:48.818Z,69.72
2022-11-20T10:35:35.415Z,69.70
2022-11-20T10:38:19.555Z,69.76
2022-11-20T10:41:17.166Z,69.74
2022-11-20T10:43:47.020Z,69.63
2022-11-20T10:46:23.436Z,69.47
2022-11-20T10:48:54.405Z,69.51
2022-11-20T10:51:41.689Z,69.39
2022-11-20T10:54:35.972Z,69.35
2022-11-20T10:57:23.522Z,69.12
2022-11-20T11:00:07.170Z,69.22
2022-11-20T11:02:41.553Z,69.16
2022-11-20T11:05:48.962Z,69.18
2022-11-20T11:08:27.621Z,69.20
2022-11-20T11:11:04.403Z,69.16
2022-11-20T11:13:35.674Z,69.19
2022-11-20T11:16:06.049Z,69.18
2022-11-20T11:18:38.319Z,68.97
2022-11-20T11:21:06.301Z,68.95
2022-11-20T11:23:44.108Z,68.95
2022-11-20T11:26:25.599Z,68.86
2022-11-20T11:29:02.382Z,68.81
2022-11-20T11:31:37.034Z,68.82
2022-11-20T11:34:14.994Z,68.85
2022-11-20T11:36:55.802Z,68.87
2022-11-20T11:39:28.333Z,68.67
2022-11-20T11:41:58.461Z,68.52
2022-11-20T11:44:53.168Z,68.36
2022-11-20T11:47:29.294Z,68.28
2022-11-20T11:50:09.961Z,68.32
2022-11-20T11:52:55.097Z,68.16
2022-11-20T11:55:47.132Z,68.26
2022-11-20T11:58:18.356Z,68.26
2022-11-20T12:01:24.457Z,68.09
2022-11-20T12:04:14.873Z,68.04
2022-11-20T12:06:49.438Z,67.92
2022-11-20T12:09:25.362Z,67.86
2022-11-20T12:12:39.193Z,67.93
2022-11-20T12:15:26.766Z,67.86
2022-11-20T12:17:55.663Z,67.94
2022-11-20T12:20:33.203Z,67.82
2022-11-20T12:23:37.503Z,67.84
2022-11-20T12:26:20.176Z,67.72
2022-11-20T12:29:14.226Z,67.56
2022-11-20T12:32:22.562Z,67.72
2022-11-20T12:35:23.597Z,67.88
2022-11-20T12:38:42.368Z,67.62
2022-11-20T12:41:57.154Z,67.56
2022-11-20T12:45:13.876Z,67.59
2022-11-20T12:48:14.229Z,67.50
2022-11-20T12:51:19.207Z,67.34
2022-11-20T12:54:15.774Z,67.12
2022-11-20T12:57:09.632Z,67.16
2022-11-20T12:59:45.257Z,67.26
2022-11-20T13:02:40.101Z,67.09
2022-11-20T13:05:46.326Z,67.01
2022-11-20T13:08:35.615Z,66.95
2022-11-20T13:11:17.955Z,67.07
2022-11-20T13:14:04.185Z,66.90
2022-11-20T13:16:44.261Z,66.87
2022-11-20T13:19:19.407Z,66.86
2022-11-20T13:21:52.320Z,66.95
2022-11-20T13:24:33.696Z,67.04
2022-11-20T13:27:24.931Z,66.97
2022-11-20T13:30:15.842Z,66.95
2022-11-20T13:33:24.584Z,66.94
2022-11-20T13:36:06.220Z,66.88
2022-11-20T13:38:57.432Z,66.73
2022-11-20T13:41:45.472Z,66.66
2022-11-20T13:45:00.241Z,66.46
2022-11-20T13:47:29.510Z,66.52
2022-11-20T13:50:05.762Z,66.66
2022-11-20T13:53:03.596Z,66.73
2022-11-20T13:56:10.252Z,66.76
2022-11-20T13:59:05.465Z,66.75
2022-11-20T14:01:37.317Z,66.70
2022-11-20T14:04:16.910Z,66.79
2022-11-20T14:06:50.397Z,66.55
2022-11-20T14:09:32.083Z,66.64
2022-11-20T14:12:05.723Z,66.61
2022-11-20T14:14:35.320Z,66.51
2022-11-20T14:17:51.459Z,66.56
2022-11-20T14:20:29.150Z,66.54
2022-11-20T14:22:59.092Z,66.57
2022-11-20T14:25:35.189Z,66.45
2022-11-20T14:28:06.973Z,66.45
2022-11-20T14:30:52.263Z,66.51
2022-11-20T14:33:27.143Z,66.43
2022-11-20T14:36:02.230Z,66.52
2022-11-20T14:38:35.516Z,66.37
2022-11-20T14:41:10.503Z,66.43
2022-11-20T14:43:49.642Z,66.50
2022-11-20T14:46:20.469Z,66.45
2022-11-20T14:49:02.481Z,66.62
2022-11-20T14:51:47.587Z,66.61
2022-11-20T14:54:22.188Z,66.66
2022-11-20T14:57:08.087Z,66.68
2022-11-20T14:59:37.406Z,66.76
2022-11-20T15:02:11.324Z,66.83
2022-11-20T15:04:49.617Z,67.00
2022-11-20T15:07:31.420Z,67.02
2022-11-20T15:10:06.054Z,67.24
2022-11-20T15:13:01.257Z,67.24
2022-11-20T15:15:30.870Z,67.44
2022-11-20T15:17:59.945Z,67.43
2022-11-20T15:20:32.484Z,67.45
2022-11-20T15:23:01.665Z,67.57
2022-11-20T15:25:30.228Z,67.66
2022-11-20T15:27:59.355Z,67.65
2022-11-20T15:30:27.962Z,67.81
2022-11-20T15:32:58.850Z,67.96
2022-11-20T15:35:27.793Z,67.99
2022-11-20T15:37:56.614Z,68.06
2022-11-20T15:40:25.456Z,68.05
2022-11-20T15:43:14.924Z,68.19
2022-11-20T15:45:55.454Z,68.25
2022-11-20T15:48:55.429Z,68.25
2022-11-20T15:51:35.222Z,68.17
2022-11-20T15:54:21.884Z,68.26
2022-11-20T15:56:53.497Z,68.33
2022-11-20T15:59:22.780Z,68.48
2022-11-20T16:01:50.798Z,68.53
2022-11-20T16:04:19.716Z,68.56
2022-11-20T16:06:49.132Z,68.57
2022-11-20T16:09:18.758Z,68.71
2022-11-20T16:11:46.835Z,68.78
2022-11-20T16:14:34.500Z,68.81
2022-11-20T16:17:02.698Z,68.85
2022-11-20T16:19:31.675Z,68.85
2022-11-20T16:22:04.560Z,68.70
2022-11-20T16:24:34.048Z,68.76
2022-11-20T16:27:02.133Z,68.95
2022-11-20T16:29:30.655Z,69.08
2022-11-20T16:31:59.800Z,69.10
2022-11-20T16:34:28.443Z,69.01
2022-11-20T16:36:57.543Z,68.95
2022-11-20T16:39:27.031Z,69.02
2022-11-20T16:41:56.485Z,69.11
2022-11-20T16:44:28.295Z,69.17
2022-11-20T16:46:59.533Z,69.25
2022-11-20T16:49:28.156Z,69.31
2022-11-20T16:51:59.134Z,69.32
2022-11-20T16:54:28.692Z,69.33
2022-11-20T16:56:57.778Z,69.42
2022-11-20T16:59:25.804Z,69.30
2022-11-20T17:01:54.753Z,69.38
2022-11-20T17:04:24.930Z,69.44
2022-11-20T17:06:54.298Z,69.41
2022-11-20T17:09:22.349Z,69.47
2022-11-20T17:11:51.808Z,69.55
2022-11-20T17:14:20.120Z,69.59
2022-11-20T17:16:50.004Z,69.55
2022-11-20T17:19:20.164Z,69.51
2022-11-20T17:21:52.563Z,69.55
2022-11-20T17:24:26.382Z,69.67
2022-11-20T17:27:03.762Z,69.63
2022-11-20T17:29:40.691Z,69.72
2022-11-20T17:32:10.908Z,69.66
2022-11-20T17:34:40.893Z,69.74
2022-11-20T17:37:10.275Z,69.58
2022-11-20T17:39:42.615Z,69.58
2022-11-20T17:42:28.037Z,69.67
2022-11-20T17:44:59.863Z,69.63
2022-11-20T17:47:28.066Z,69.68
2022-11-20T17:49:56.277Z,69.88
2022-11-20T17:52:26.556Z,69.99
2022-11-20T17:54:56.175Z,69.85
2022-11-20T17:57:45.352Z,69.90
2022-11-20T18:00:16.782Z,69.92
2022-11-20T18:02:49.679Z,69.87
2022-11-20T18:05:20.901Z,69.73
2022-11-20T18:07:53.932Z,69.91
2022-11-20T18:10:22.309Z,69.83
2022-11-20T18:12:50.992Z,69.82
2022-11-20T18:15:20.677Z,69.83
2022-11-20T18:17:50.513Z,69.85
2022-11-20T18:20:29.482Z,69.94
2022-11-20T18:23:02.364Z,69.96
2022-11-20T18:25:30.484Z,70.04
2022-11-20T18:27:59.701Z,69.99
2022-11-20T18:30:27.885Z,69.99
2022-11-20T18:32:56.472Z,70.05
2022-11-20T18:35:26.970Z,70.25
2022-11-20T18:37:55.108Z,70.06
2022-11-20T18:40:26.166Z,70.16
2022-11-20T18:46:30.480Z,70.23
2022-11-20T18:48:59.301Z,70.33
2022-11-20T18:54:13.176Z,70.42
2022-11-20T18:56:41.869Z,70.36
2022-11-20T18:59:13.452Z,70.43
2022-11-20T19:01:53.931Z,70.30
2022-11-20T19:04:33.358Z,70.47
2022-11-20T19:07:01.366Z,70.41
2022-11-20T19:09:29.622Z,70.47
2022-11-20T19:11:57.831Z,70.47
2022-11-20T19:14:27.142Z,70.72
2022-11-20T19:16:56.355Z,70.60
2022-11-20T19:19:31.080Z,70.74
2022-11-20T19:22:04.410Z,70.64
2022-11-20T19:24:32.423Z,70.85
2022-11-20T19:27:01.925Z,70.77
2022-11-20T19:29:32.295Z,70.67
2022-11-20T19:32:00.681Z,70.87
2022-11-20T19:34:58.305Z,70.84
2022-11-20T19:37:26.529Z,70.89
2022-11-20T19:39:57.807Z,71.10
2022-11-20T19:42:26.203Z,71.19
2022-11-20T19:44:54.889Z,71.14
2022-11-20T19:47:27.745Z,71.13
2022-11-20T19:50:11.682Z,71.25
2022-11-20T19:52:42.623Z,71.31
2022-11-20T19:55:11.556Z,71.33
2022-11-20T19:57:47.525Z,71.33
2022-11-20T20:00:24.458Z,71.28
2022-11-20T20:02:59.637Z,71.27
2022-11-20T20:05:36.706Z,71.33
2022-11-20T20:08:05.404Z,71.30
2022-11-20T20:10:34.152Z,71.33
2022-11-20T20:13:06.565Z,71.40
2022-11-20T20:15:35.574Z,71.44
2022-11-20T20:18:05.640Z,71.44
2022-11-20T20:20:34.461Z,71.48
2022-11-20T20:23:07.090Z,71.50
2022-11-20T20:25:38.416Z,71.37
2022-11-20T20:28:08.201Z,71.49
2022-11-20T20:30:36.857Z,71.40
2022-11-20T20:33:05.272Z,71.46
2022-11-20T20:35:35.063Z,71.47
2022-11-20T20:38:03.250Z,71.62
2022-11-20T20:40:32.352Z,71.64
2022-11-20T20:43:01.309Z,71.58
2022-11-20T20:45:29.852Z,71.69
2022-11-20T20:47:58.737Z,71.71
2022-11-20T20:50:27.842Z,71.64
2022-11-20T20:52:58.189Z,71.69
2022-11-20T20:55:26.610Z,71.77
2022-11-20T20:58:00.613Z,71.79
2022-11-20T21:00:32.548Z,71.88
2022-11-20T21:03:00.799Z,71.90
2022-11-20T21:05:29.447Z,71.89
2022-11-20T21:08:18.457Z,71.91
2022-11-20T21:10:49.880Z,71.97
2022-11-20T21:13:18.390Z,71.78
2022-11-20T21:15:49.635Z,71.83
2022-11-20T21:18:22.444Z,71.80
2022-11-20T21:21:10.180Z,71.80
2022-11-20T21:23:39.615Z,71.97
2022-11-20T21:26:09.331Z,73.29
2022-11-20T21:28:45.335Z,75.90
2022-11-20T21:31:27.640Z,76.39
2022-11-20T21:33:57.364Z,75.04
2022-11-20T21:36:28.585Z,74.00
2022-11-20T21:39:00.430Z,73.11
2022-11-20T21:41:30.740Z,72.52
2022-11-20T21:46:54.103Z,72.16
2022-11-20T21:49:23.081Z,72.02
2022-11-20T21:51:51.784Z,71.98
2022-11-20T21:54:20.827Z,71.85
2022-11-20T21:56:48.941Z,72.04
2022-11-20T21:59:17.783Z,72.06
2022-11-20T22:01:45.857Z,72.11
2022-11-20T22:04:15.730Z,71.88
2022-11-20T22:06:43.878Z,71.94
2022-11-20T22:09:13.345Z,72.02
2022-11-20T22:11:43.576Z,71.96
2022-11-20T22:14:26.027Z,71.91
2022-11-20T22:16:54.325Z,72.01
2022-11-20T22:19:23.413Z,71.96
2022-11-20T22:21:51.538Z,71.87
2022-11-20T22:24:22.220Z,72.03
2022-11-20T22:26:51.499Z,71.89
2022-11-20T22:29:21.973Z,71.91
2022-11-20T22:31:53.668Z,71.97
2022-11-20T22:34:21.999Z,71.98
2022-11-20T22:36:51.265Z,71.85
2022-11-20T22:39:22.127Z,71.84
2022-11-20T22:41:50.131Z,71.97
2022-11-20T22:44:18.691Z,72.09
2022-11-20T22:46:46.641Z,71.90
2022-11-20T22:49:14.639Z,72.15
2022-11-20T22:51:43.779Z,72.09
2022-11-20T22:54:13.462Z,71.98
2022-11-20T22:56:41.853Z,72.03
2022-11-20T22:59:10.114Z,72.06
2022-11-20T23:01:39.095Z,72.10
2022-11-20T23:04:10.836Z,72.07
2022-11-20T23:06:39.261Z,72.14
2022-11-20T23:09:08.957Z,72.04
2022-11-20T23:11:38.861Z,71.97
2022-11-20T23:14:15.399Z,72.03
2022-11-20T23:16:43.534Z,71.92
2022-11-20T23:19:14.569Z,71.86
2022-11-20T23:21:44.007Z,71.76
2022-11-20T23:24:12.114Z,71.61
2022-11-20T23:26:41.427Z,71.86
2022-11-20T23:29:10.032Z,71.95
2022-11-20T23:31:38.079Z,72.01
2022-11-20T23:34:06.026Z,72.05
2022-11-20T23:36:34.418Z,72.04
2022-11-20T23:39:04.089Z,72.15
2022-11-20T23:41:32.023Z,72.31
2022-11-20T23:44:00.060Z,72.22
2022-11-20T23:46:28.055Z,72.30
2022-11-20T23:48:56.047Z,72.43
2022-11-20T23:51:24.046Z,72.58
2022-11-20T23:53:52.124Z,72.54
2022-11-20T23:56:20.263Z,72.78
2022-11-20T23:58:48.377Z,72.72
